sensor_id;sensor_type;location;lat;lon;timestamp;P1;durP1;ratioP1;P2;durP2;ratioP2
52041;SDS011;38052;45.944;13.624;2023-05-10T00:02:24;2.50;;;1.15;;
52041;SDS011;38052;45.944;13.624;2023-05-10T00:04:50;1.77;;;0.90;;
52041;SDS011;38052;45.944;13.624;2023-05-10T00:07:17;2.33;;;1.05;;
52041;SDS011;38052;45.944;13.624;2023-05-10T00:09:43;2.00;;;0.88;;
52041;SDS011;38052;45.944;13.624;2023-05-10T00:12:10;2.90;;;0.70;;
52041;SDS011;38052;45.944;13.624;2023-05-10T00:14:37;2.10;;;0.98;;
52041;SDS011;38052;45.944;13.624;2023-05-10T00:17:03;1.27;;;0.65;;
52041;SDS011;38052;45.944;13.624;2023-05-10T00:19:29;2.65;;;0.90;;
52041;SDS011;38052;45.944;13.624;2023-05-10T00:21:56;1.42;;;0.70;;
52041;SDS011;38052;45.944;13.624;2023-05-10T00:24:22;3.63;;;0.90;;
52041;SDS011;38052;45.944;13.624;2023-05-10T00:26:48;1.73;;;0.80;;
52041;SDS011;38052;45.944;13.624;2023-05-10T00:29:15;5.90;;;1.00;;
52041;SDS011;38052;45.944;13.624;2023-05-10T00:31:41;1.63;;;0.70;;
52041;SDS011;38052;45.944;13.624;2023-05-10T00:34:07;3.70;;;0.75;;
52041;SDS011;38052;45.944;13.624;2023-05-10T00:36:34;6.40;;;0.82;;
52041;SDS011;38052;45.944;13.624;2023-05-10T00:39:01;1.15;;;0.63;;
52041;SDS011;38052;45.944;13.624;2023-05-10T00:41:28;2.40;;;1.15;;
52041;SDS011;38052;45.944;13.624;2023-05-10T00:43:56;1.92;;;0.90;;
52041;SDS011;38052;45.944;13.624;2023-05-10T00:46:23;1.77;;;1.08;;
52041;SDS011;38052;45.944;13.624;2023-05-10T00:48:50;2.13;;;0.70;;
52041;SDS011;38052;45.944;13.624;2023-05-10T00:51:16;1.95;;;0.70;;
52041;SDS011;38052;45.944;13.624;2023-05-10T00:53:43;4.13;;;1.15;;
52041;SDS011;38052;45.944;13.624;2023-05-10T00:56:09;2.97;;;1.80;;
52041;SDS011;38052;45.944;13.624;2023-05-10T00:58:36;1.30;;;0.73;;
52041;SDS011;38052;45.944;13.624;2023-05-10T01:01:03;1.70;;;0.70;;
52041;SDS011;38052;45.944;13.624;2023-05-10T01:03:30;3.10;;;0.80;;
52041;SDS011;38052;45.944;13.624;2023-05-10T01:05:57;3.40;;;0.80;;
52041;SDS011;38052;45.944;13.624;2023-05-10T01:08:23;4.60;;;0.75;;
52041;SDS011;38052;45.944;13.624;2023-05-10T01:10:50;1.73;;;0.80;;
52041;SDS011;38052;45.944;13.624;2023-05-10T01:13:18;2.45;;;0.85;;
52041;SDS011;38052;45.944;13.624;2023-05-10T01:15:48;1.48;;;0.80;;
52041;SDS011;38052;45.944;13.624;2023-05-10T01:18:15;2.78;;;0.70;;
52041;SDS011;38052;45.944;13.624;2023-05-10T01:20:43;3.53;;;1.05;;
52041;SDS011;38052;45.944;13.624;2023-05-10T01:28:16;3.35;;;0.73;;
52041;SDS011;38052;45.944;13.624;2023-05-10T01:30:59;1.45;;;0.75;;
52041;SDS011;38052;45.944;13.624;2023-05-10T01:46:16;3.13;;;2.05;;
52041;SDS011;38052;45.944;13.624;2023-05-10T01:48:47;1.92;;;0.77;;
52041;SDS011;38052;45.944;13.624;2023-05-10T01:51:15;2.10;;;0.90;;
52041;SDS011;38052;45.944;13.624;2023-05-10T01:53:43;2.45;;;0.93;;
52041;SDS011;38052;45.944;13.624;2023-05-10T01:56:10;1.75;;;0.80;;
52041;SDS011;38052;45.944;13.624;2023-05-10T01:58:37;3.08;;;0.90;;
52041;SDS011;38052;45.944;13.624;2023-05-10T02:01:07;2.10;;;0.90;;
52041;SDS011;38052;45.944;13.624;2023-05-10T02:03:34;2.03;;;1.10;;
52041;SDS011;38052;45.944;13.624;2023-05-10T02:06:02;1.50;;;0.90;;
52041;SDS011;38052;45.944;13.624;2023-05-10T02:08:29;3.78;;;0.75;;
52041;SDS011;38052;45.944;13.624;2023-05-10T02:10:56;2.15;;;0.98;;
52041;SDS011;38052;45.944;13.624;2023-05-10T02:13:23;2.92;;;0.65;;
52041;SDS011;38052;45.944;13.624;2023-05-10T02:15:49;2.25;;;0.95;;
52041;SDS011;38052;45.944;13.624;2023-05-10T02:18:17;6.18;;;0.82;;
52041;SDS011;38052;45.944;13.624;2023-05-10T02:20:47;1.88;;;1.13;;
52041;SDS011;38052;45.944;13.624;2023-05-10T02:23:13;2.70;;;1.00;;
52041;SDS011;38052;45.944;13.624;2023-05-10T02:25:42;2.40;;;1.30;;
52041;SDS011;38052;45.944;13.624;2023-05-10T02:28:09;3.03;;;1.33;;
52041;SDS011;38052;45.944;13.624;2023-05-10T02:30:36;1.92;;;0.82;;
52041;SDS011;38052;45.944;13.624;2023-05-10T02:33:03;8.52;;;1.35;;
52041;SDS011;38052;45.944;13.624;2023-05-10T02:35:30;2.22;;;1.17;;
52041;SDS011;38052;45.944;13.624;2023-05-10T02:37:58;2.22;;;1.10;;
52041;SDS011;38052;45.944;13.624;2023-05-10T02:40:25;1.80;;;1.02;;
52041;SDS011;38052;45.944;13.624;2023-05-10T02:42:52;1.92;;;1.02;;
52041;SDS011;38052;45.944;13.624;2023-05-10T02:45:20;3.08;;;1.10;;
52041;SDS011;38052;45.944;13.624;2023-05-10T02:47:48;1.95;;;1.20;;
52041;SDS011;38052;45.944;13.624;2023-05-10T02:50:14;2.95;;;1.08;;
52041;SDS011;38052;45.944;13.624;2023-05-10T02:52:42;4.07;;;1.45;;
52041;SDS011;38052;45.944;13.624;2023-05-10T02:55:11;3.03;;;1.00;;
52041;SDS011;38052;45.944;13.624;2023-05-10T02:57:40;3.72;;;1.40;;
52041;SDS011;38052;45.944;13.624;2023-05-10T03:00:08;2.88;;;1.02;;
52041;SDS011;38052;45.944;13.624;2023-05-10T03:02:34;2.72;;;1.17;;
52041;SDS011;38052;45.944;13.624;2023-05-10T03:05:01;6.55;;;1.60;;
52041;SDS011;38052;45.944;13.624;2023-05-10T03:07:28;3.58;;;1.15;;
52041;SDS011;38052;45.944;13.624;2023-05-10T03:09:54;4.55;;;1.75;;
52041;SDS011;38052;45.944;13.624;2023-05-10T03:15:14;3.85;;;1.30;;
52041;SDS011;38052;45.944;13.624;2023-05-10T03:20:24;2.42;;;1.20;;
52041;SDS011;38052;45.944;13.624;2023-05-10T03:22:53;6.65;;;1.45;;
52041;SDS011;38052;45.944;13.624;2023-05-10T03:25:21;2.17;;;1.25;;
52041;SDS011;38052;45.944;13.624;2023-05-10T03:27:49;5.55;;;1.52;;
52041;SDS011;38052;45.944;13.624;2023-05-10T03:30:15;4.93;;;1.63;;
52041;SDS011;38052;45.944;13.624;2023-05-10T03:32:42;2.00;;;1.00;;
52041;SDS011;38052;45.944;13.624;2023-05-10T03:35:10;12.65;;;1.70;;
52041;SDS011;38052;45.944;13.624;2023-05-10T03:37:42;2.72;;;1.30;;
52041;SDS011;38052;45.944;13.624;2023-05-10T03:40:10;2.65;;;1.42;;
52041;SDS011;38052;45.944;13.624;2023-05-10T03:42:36;3.80;;;1.88;;
52041;SDS011;38052;45.944;13.624;2023-05-10T03:45:02;2.63;;;1.00;;
52041;SDS011;38052;45.944;13.624;2023-05-10T03:47:29;4.88;;;1.27;;
52041;SDS011;38052;45.944;13.624;2023-05-10T03:49:55;3.60;;;1.30;;
52041;SDS011;38052;45.944;13.624;2023-05-10T03:52:22;3.55;;;1.50;;
52041;SDS011;38052;45.944;13.624;2023-05-10T03:54:48;2.30;;;1.30;;
52041;SDS011;38052;45.944;13.624;2023-05-10T03:57:18;3.85;;;1.42;;
52041;SDS011;38052;45.944;13.624;2023-05-10T03:59:44;3.75;;;1.73;;
52041;SDS011;38052;45.944;13.624;2023-05-10T04:02:10;3.80;;;1.25;;
52041;SDS011;38052;45.944;13.624;2023-05-10T04:04:37;2.10;;;1.30;;
52041;SDS011;38052;45.944;13.624;2023-05-10T04:07:03;2.80;;;1.35;;
52041;SDS011;38052;45.944;13.624;2023-05-10T04:09:30;3.17;;;1.33;;
52041;SDS011;38052;45.944;13.624;2023-05-10T04:11:58;1.95;;;1.23;;
52041;SDS011;38052;45.944;13.624;2023-05-10T04:14:25;3.60;;;1.45;;
52041;SDS011;38052;45.944;13.624;2023-05-10T04:16:52;5.10;;;1.50;;
52041;SDS011;38052;45.944;13.624;2023-05-10T04:19:18;3.47;;;1.40;;
52041;SDS011;38052;45.944;13.624;2023-05-10T04:21:44;3.17;;;1.23;;
52041;SDS011;38052;45.944;13.624;2023-05-10T04:24:11;2.08;;;1.30;;
52041;SDS011;38052;45.944;13.624;2023-05-10T04:26:38;3.38;;;1.30;;
52041;SDS011;38052;45.944;13.624;2023-05-10T04:29:05;3.92;;;1.08;;
52041;SDS011;38052;45.944;13.624;2023-05-10T04:31:31;2.58;;;1.02;;
52041;SDS011;38052;45.944;13.624;2023-05-10T04:33:57;4.63;;;1.10;;
52041;SDS011;38052;45.944;13.624;2023-05-10T04:36:24;3.55;;;1.85;;
52041;SDS011;38052;45.944;13.624;2023-05-10T04:38:50;6.95;;;1.90;;
52041;SDS011;38052;45.944;13.624;2023-05-10T04:41:17;4.63;;;2.95;;
52041;SDS011;38052;45.944;13.624;2023-05-10T04:43:43;4.05;;;1.80;;
52041;SDS011;38052;45.944;13.624;2023-05-10T04:46:10;2.55;;;1.23;;
52041;SDS011;38052;45.944;13.624;2023-05-10T04:48:37;6.22;;;1.50;;
52041;SDS011;38052;45.944;13.624;2023-05-10T04:51:03;9.38;;;1.55;;
52041;SDS011;38052;45.944;13.624;2023-05-10T04:53:31;2.90;;;1.15;;
52041;SDS011;38052;45.944;13.624;2023-05-10T04:55:58;4.82;;;1.75;;
52041;SDS011;38052;45.944;13.624;2023-05-10T04:58:24;3.70;;;1.52;;
52041;SDS011;38052;45.944;13.624;2023-05-10T05:00:51;4.78;;;1.58;;
52041;SDS011;38052;45.944;13.624;2023-05-10T05:03:17;5.53;;;1.40;;
52041;SDS011;38052;45.944;13.624;2023-05-10T05:05:47;4.00;;;1.50;;
52041;SDS011;38052;45.944;13.624;2023-05-10T05:08:13;2.78;;;1.55;;
52041;SDS011;38052;45.944;13.624;2023-05-10T05:10:40;3.40;;;1.52;;
52041;SDS011;38052;45.944;13.624;2023-05-10T05:13:06;4.30;;;1.45;;
52041;SDS011;38052;45.944;13.624;2023-05-10T05:15:33;5.60;;;1.65;;
52041;SDS011;38052;45.944;13.624;2023-05-10T05:17:59;2.85;;;1.40;;
52041;SDS011;38052;45.944;13.624;2023-05-10T05:20:26;3.60;;;1.35;;
52041;SDS011;38052;45.944;13.624;2023-05-10T05:22:52;2.38;;;1.45;;
52041;SDS011;38052;45.944;13.624;2023-05-10T05:25:22;2.85;;;1.30;;
52041;SDS011;38052;45.944;13.624;2023-05-10T05:27:49;4.15;;;1.73;;
52041;SDS011;38052;45.944;13.624;2023-05-10T05:30:16;4.13;;;1.15;;
52041;SDS011;38052;45.944;13.624;2023-05-10T05:32:42;2.80;;;1.50;;
52041;SDS011;38052;45.944;13.624;2023-05-10T05:35:08;3.10;;;1.23;;
52041;SDS011;38052;45.944;13.624;2023-05-10T05:37:35;2.28;;;1.13;;
52041;SDS011;38052;45.944;13.624;2023-05-10T05:40:02;2.70;;;1.55;;
52041;SDS011;38052;45.944;13.624;2023-05-10T05:42:28;5.60;;;1.50;;
52041;SDS011;38052;45.944;13.624;2023-05-10T05:44:54;3.03;;;1.73;;
52041;SDS011;38052;45.944;13.624;2023-05-10T05:47:21;2.17;;;1.75;;
52041;SDS011;38052;45.944;13.624;2023-05-10T05:49:47;4.90;;;1.27;;
52041;SDS011;38052;45.944;13.624;2023-05-10T05:52:14;3.75;;;1.80;;
52041;SDS011;38052;45.944;13.624;2023-05-10T05:54:43;2.42;;;1.30;;
52041;SDS011;38052;45.944;13.624;2023-05-10T05:57:10;3.75;;;1.45;;
52041;SDS011;38052;45.944;13.624;2023-05-10T05:59:36;3.40;;;1.95;;
52041;SDS011;38052;45.944;13.624;2023-05-10T06:02:08;3.45;;;1.50;;
52041;SDS011;38052;45.944;13.624;2023-05-10T06:04:34;2.97;;;2.05;;
52041;SDS011;38052;45.944;13.624;2023-05-10T06:07:01;3.90;;;1.80;;
52041;SDS011;38052;45.944;13.624;2023-05-10T06:09:27;2.65;;;1.48;;
52041;SDS011;38052;45.944;13.624;2023-05-10T06:11:53;5.65;;;1.50;;
52041;SDS011;38052;45.944;13.624;2023-05-10T06:14:20;5.22;;;2.42;;
52041;SDS011;38052;45.944;13.624;2023-05-10T06:16:46;4.82;;;1.70;;
52041;SDS011;38052;45.944;13.624;2023-05-10T06:19:13;3.70;;;1.98;;
52041;SDS011;38052;45.944;13.624;2023-05-10T06:21:40;3.45;;;2.15;;
52041;SDS011;38052;45.944;13.624;2023-05-10T06:24:06;10.32;;;2.35;;
52041;SDS011;38052;45.944;13.624;2023-05-10T06:26:33;3.72;;;2.25;;
52041;SDS011;38052;45.944;13.624;2023-05-10T06:28:59;4.15;;;2.00;;
52041;SDS011;38052;45.944;13.624;2023-05-10T06:31:26;3.10;;;1.77;;
52041;SDS011;38052;45.944;13.624;2023-05-10T06:33:52;3.80;;;2.13;;
52041;SDS011;38052;45.944;13.624;2023-05-10T06:36:19;2.92;;;1.75;;
52041;SDS011;38052;45.944;13.624;2023-05-10T06:38:45;5.32;;;2.00;;
52041;SDS011;38052;45.944;13.624;2023-05-10T06:41:12;5.10;;;1.92;;
52041;SDS011;38052;45.944;13.624;2023-05-10T06:43:42;3.10;;;2.00;;
52041;SDS011;38052;45.944;13.624;2023-05-10T06:46:08;6.15;;;2.25;;
52041;SDS011;38052;45.944;13.624;2023-05-10T06:48:35;6.20;;;1.48;;
52041;SDS011;38052;45.944;13.624;2023-05-10T06:51:01;5.72;;;1.90;;
52041;SDS011;38052;45.944;13.624;2023-05-10T06:53:27;4.05;;;2.20;;
52041;SDS011;38052;45.944;13.624;2023-05-10T06:55:53;3.20;;;1.80;;
52041;SDS011;38052;45.944;13.624;2023-05-10T06:58:20;6.68;;;1.88;;
52041;SDS011;38052;45.944;13.624;2023-05-10T07:00:47;2.38;;;1.92;;
52041;SDS011;38052;45.944;13.624;2023-05-10T07:03:13;5.10;;;2.47;;
52041;SDS011;38052;45.944;13.624;2023-05-10T07:05:40;2.97;;;1.90;;
52041;SDS011;38052;45.944;13.624;2023-05-10T07:08:06;2.83;;;1.70;;
52041;SDS011;38052;45.944;13.624;2023-05-10T07:10:33;5.10;;;2.30;;
52041;SDS011;38052;45.944;13.624;2023-05-10T07:12:59;4.13;;;1.90;;
52041;SDS011;38052;45.944;13.624;2023-05-10T07:15:26;4.63;;;2.10;;
52041;SDS011;38052;45.944;13.624;2023-05-10T07:17:53;3.33;;;2.22;;
52041;SDS011;38052;45.944;13.624;2023-05-10T07:20:19;4.35;;;2.33;;
52041;SDS011;38052;45.944;13.624;2023-05-10T07:22:46;6.25;;;2.28;;
52041;SDS011;38052;45.944;13.624;2023-05-10T07:25:12;4.22;;;2.20;;
52041;SDS011;38052;45.944;13.624;2023-05-10T07:27:39;3.92;;;2.17;;
52041;SDS011;38052;45.944;13.624;2023-05-10T07:30:05;5.13;;;2.03;;
52041;SDS011;38052;45.944;13.624;2023-05-10T07:32:32;4.50;;;1.73;;
52041;SDS011;38052;45.944;13.624;2023-05-10T07:34:58;4.40;;;2.17;;
52041;SDS011;38052;45.944;13.624;2023-05-10T07:37:24;4.82;;;2.42;;
52041;SDS011;38052;45.944;13.624;2023-05-10T07:39:51;2.95;;;1.92;;
52041;SDS011;38052;45.944;13.624;2023-05-10T07:42:18;6.63;;;2.50;;
52041;SDS011;38052;45.944;13.624;2023-05-10T07:44:44;6.05;;;2.63;;
52041;SDS011;38052;45.944;13.624;2023-05-10T07:47:11;5.60;;;2.05;;
52041;SDS011;38052;45.944;13.624;2023-05-10T07:49:37;4.65;;;1.98;;
52041;SDS011;38052;45.944;13.624;2023-05-10T07:52:04;5.35;;;2.30;;
52041;SDS011;38052;45.944;13.624;2023-05-10T07:54:31;2.65;;;2.30;;
52041;SDS011;38052;45.944;13.624;2023-05-10T07:56:59;3.28;;;2.08;;
52041;SDS011;38052;45.944;13.624;2023-05-10T07:59:25;4.88;;;2.58;;
52041;SDS011;38052;45.944;13.624;2023-05-10T08:01:52;5.78;;;2.35;;
52041;SDS011;38052;45.944;13.624;2023-05-10T08:04:18;4.70;;;2.45;;
52041;SDS011;38052;45.944;13.624;2023-05-10T08:06:45;4.13;;;2.05;;
52041;SDS011;38052;45.944;13.624;2023-05-10T08:09:11;4.60;;;1.80;;
52041;SDS011;38052;45.944;13.624;2023-05-10T08:11:38;3.60;;;2.25;;
52041;SDS011;38052;45.944;13.624;2023-05-10T08:14:04;4.50;;;2.47;;
52041;SDS011;38052;45.944;13.624;2023-05-10T08:16:31;7.63;;;2.42;;
52041;SDS011;38052;45.944;13.624;2023-05-10T08:18:58;4.82;;;2.58;;
52041;SDS011;38052;45.944;13.624;2023-05-10T08:21:25;4.20;;;2.35;;
52041;SDS011;38052;45.944;13.624;2023-05-10T08:23:51;7.07;;;2.55;;
52041;SDS011;38052;45.944;13.624;2023-05-10T08:26:17;3.83;;;2.58;;
52041;SDS011;38052;45.944;13.624;2023-05-10T08:28:44;5.82;;;2.33;;
52041;SDS011;38052;45.944;13.624;2023-05-10T08:31:11;4.93;;;2.55;;
52041;SDS011;38052;45.944;13.624;2023-05-10T08:33:38;4.30;;;2.53;;
52041;SDS011;38052;45.944;13.624;2023-05-10T08:36:04;5.85;;;3.00;;
52041;SDS011;38052;45.944;13.624;2023-05-10T08:38:31;6.80;;;3.65;;
52041;SDS011;38052;45.944;13.624;2023-05-10T08:40:57;4.80;;;3.08;;
52041;SDS011;38052;45.944;13.624;2023-05-10T08:43:26;6.85;;;3.00;;
52041;SDS011;38052;45.944;13.624;2023-05-10T08:45:53;4.50;;;3.20;;
52041;SDS011;38052;45.944;13.624;2023-05-10T08:48:20;13.20;;;2.17;;
52041;SDS011;38052;45.944;13.624;2023-05-10T08:50:49;4.70;;;3.30;;
52041;SDS011;38052;45.944;13.624;2023-05-10T08:53:16;5.68;;;3.50;;
52041;SDS011;38052;45.944;13.624;2023-05-10T08:55:42;4.00;;;2.80;;
52041;SDS011;38052;45.944;13.624;2023-05-10T08:58:09;6.00;;;3.45;;
52041;SDS011;38052;45.944;13.624;2023-05-10T09:00:36;3.97;;;3.10;;
52041;SDS011;38052;45.944;13.624;2023-05-10T09:03:02;4.95;;;2.47;;
52041;SDS011;38052;45.944;13.624;2023-05-10T09:05:29;4.00;;;2.58;;
52041;SDS011;38052;45.944;13.624;2023-05-10T09:07:56;4.78;;;2.17;;
52041;SDS011;38052;45.944;13.624;2023-05-10T09:10:22;4.05;;;2.80;;
52041;SDS011;38052;45.944;13.624;2023-05-10T09:12:51;6.40;;;3.42;;
52041;SDS011;38052;45.944;13.624;2023-05-10T09:15:17;5.07;;;2.78;;
52041;SDS011;38052;45.944;13.624;2023-05-10T09:17:45;4.40;;;2.25;;
52041;SDS011;38052;45.944;13.624;2023-05-10T09:20:11;4.93;;;2.67;;
52041;SDS011;38052;45.944;13.624;2023-05-10T09:22:38;4.20;;;3.10;;
52041;SDS011;38052;45.944;13.624;2023-05-10T09:25:09;7.10;;;2.97;;
52041;SDS011;38052;45.944;13.624;2023-05-10T09:27:36;6.07;;;2.95;;
52041;SDS011;38052;45.944;13.624;2023-05-10T09:30:02;6.85;;;3.53;;
52041;SDS011;38052;45.944;13.624;2023-05-10T09:32:36;5.47;;;2.67;;
52041;SDS011;38052;45.944;13.624;2023-05-10T09:35:09;7.40;;;3.35;;
52041;SDS011;38052;45.944;13.624;2023-05-10T09:37:35;3.63;;;2.85;;
52041;SDS011;38052;45.944;13.624;2023-05-10T09:40:05;5.15;;;3.38;;
52041;SDS011;38052;45.944;13.624;2023-05-10T09:42:33;3.78;;;2.67;;
52041;SDS011;38052;45.944;13.624;2023-05-10T09:45:03;7.38;;;3.40;;
52041;SDS011;38052;45.944;13.624;2023-05-10T09:47:33;4.40;;;2.97;;
52041;SDS011;38052;45.944;13.624;2023-05-10T09:49:59;5.45;;;3.10;;
52041;SDS011;38052;45.944;13.624;2023-05-10T09:53:14;5.82;;;3.53;;
52041;SDS011;38052;45.944;13.624;2023-05-10T09:55:19;6.05;;;3.55;;
52041;SDS011;38052;45.944;13.624;2023-05-10T09:57:46;6.05;;;3.67;;
52041;SDS011;38052;45.944;13.624;2023-05-10T10:00:17;3.55;;;3.17;;
52041;SDS011;38052;45.944;13.624;2023-05-10T10:02:44;5.97;;;3.63;;
52041;SDS011;38052;45.944;13.624;2023-05-10T10:05:11;7.45;;;3.20;;
52041;SDS011;38052;45.944;13.624;2023-05-10T10:07:37;5.57;;;3.88;;
52041;SDS011;38052;45.944;13.624;2023-05-10T10:10:04;5.40;;;4.03;;
52041;SDS011;38052;45.944;13.624;2023-05-10T10:12:31;6.13;;;4.22;;
52041;SDS011;38052;45.944;13.624;2023-05-10T10:14:57;6.55;;;4.28;;
52041;SDS011;38052;45.944;13.624;2023-05-10T10:17:26;5.35;;;4.38;;
52041;SDS011;38052;45.944;13.624;2023-05-10T10:19:53;7.57;;;4.28;;
52041;SDS011;38052;45.944;13.624;2023-05-10T10:22:20;7.28;;;4.35;;
52041;SDS011;38052;45.944;13.624;2023-05-10T10:24:46;6.75;;;3.90;;
52041;SDS011;38052;45.944;13.624;2023-05-10T10:27:19;6.18;;;4.28;;
52041;SDS011;38052;45.944;13.624;2023-05-10T10:29:57;10.85;;;3.47;;
52041;SDS011;38052;45.944;13.624;2023-05-10T10:32:27;4.25;;;3.10;;
52041;SDS011;38052;45.944;13.624;2023-05-10T10:37:22;4.95;;;3.75;;
52041;SDS011;38052;45.944;13.624;2023-05-10T10:39:49;6.28;;;4.05;;
52041;SDS011;38052;45.944;13.624;2023-05-10T10:42:17;6.78;;;3.92;;
52041;SDS011;38052;45.944;13.624;2023-05-10T10:45:13;5.90;;;3.83;;
52041;SDS011;38052;45.944;13.624;2023-05-10T10:47:40;5.90;;;4.15;;
52041;SDS011;38052;45.944;13.624;2023-05-10T10:50:08;4.45;;;3.65;;
52041;SDS011;38052;45.944;13.624;2023-05-10T10:52:44;6.30;;;3.88;;
52041;SDS011;38052;45.944;13.624;2023-05-10T10:55:12;5.80;;;4.00;;
52041;SDS011;38052;45.944;13.624;2023-05-10T11:00:22;7.53;;;4.30;;
52041;SDS011;38052;45.944;13.624;2023-05-10T11:03:05;5.90;;;4.43;;
52041;SDS011;38052;45.944;13.624;2023-05-10T11:10:40;5.35;;;4.22;;
52041;SDS011;38052;45.944;13.624;2023-05-10T11:13:07;5.25;;;4.05;;
52041;SDS011;38052;45.944;13.624;2023-05-10T11:15:34;6.22;;;4.50;;
52041;SDS011;38052;45.944;13.624;2023-05-10T11:18:16;5.57;;;4.32;;
52041;SDS011;38052;45.944;13.624;2023-05-10T11:20:42;5.45;;;4.47;;
52041;SDS011;38052;45.944;13.624;2023-05-10T11:23:12;5.15;;;3.60;;
52041;SDS011;38052;45.944;13.624;2023-05-10T11:25:43;5.65;;;4.68;;
52041;SDS011;38052;45.944;13.624;2023-05-10T11:28:10;8.23;;;4.75;;
52041;SDS011;38052;45.944;13.624;2023-05-10T11:30:37;8.32;;;4.97;;
52041;SDS011;38052;45.944;13.624;2023-05-10T11:33:05;6.22;;;5.35;;
52041;SDS011;38052;45.944;13.624;2023-05-10T11:35:36;8.15;;;6.05;;
52041;SDS011;38052;45.944;13.624;2023-05-10T11:38:07;6.18;;;4.72;;
52041;SDS011;38052;45.944;13.624;2023-05-10T11:40:35;7.57;;;5.22;;
52041;SDS011;38052;45.944;13.624;2023-05-10T11:43:02;9.73;;;5.20;;
52041;SDS011;38052;45.944;13.624;2023-05-10T11:45:31;7.00;;;5.30;;
52041;SDS011;38052;45.944;13.624;2023-05-10T11:47:58;7.80;;;5.97;;
52041;SDS011;38052;45.944;13.624;2023-05-10T11:50:25;5.68;;;4.68;;
52041;SDS011;38052;45.944;13.624;2023-05-10T11:52:52;5.80;;;5.18;;
52041;SDS011;38052;45.944;13.624;2023-05-10T11:55:18;9.13;;;5.85;;
52041;SDS011;38052;45.944;13.624;2023-05-10T11:57:44;6.07;;;4.88;;
52041;SDS011;38052;45.944;13.624;2023-05-10T12:00:11;9.30;;;6.25;;
52041;SDS011;38052;45.944;13.624;2023-05-10T12:02:38;5.82;;;5.22;;
52041;SDS011;38052;45.944;13.624;2023-05-10T12:05:04;6.93;;;5.30;;
52041;SDS011;38052;45.944;13.624;2023-05-10T12:07:31;6.90;;;5.35;;
52041;SDS011;38052;45.944;13.624;2023-05-10T12:10:07;6.63;;;5.40;;
52041;SDS011;38052;45.944;13.624;2023-05-10T12:12:37;5.78;;;4.97;;
52041;SDS011;38052;45.944;13.624;2023-05-10T12:15:04;6.78;;;5.00;;
52041;SDS011;38052;45.944;13.624;2023-05-10T12:17:31;6.85;;;5.50;;
52041;SDS011;38052;45.944;13.624;2023-05-10T12:22:49;6.20;;;5.00;;
52041;SDS011;38052;45.944;13.624;2023-05-10T12:25:16;7.43;;;5.10;;
52041;SDS011;38052;45.944;13.624;2023-05-10T12:27:50;9.23;;;6.43;;
52041;SDS011;38052;45.944;13.624;2023-05-10T12:32:49;9.25;;;6.38;;
52041;SDS011;38052;45.944;13.624;2023-05-10T12:35:15;12.32;;;6.43;;
52041;SDS011;38052;45.944;13.624;2023-05-10T12:37:42;9.82;;;7.40;;
52041;SDS011;38052;45.944;13.624;2023-05-10T12:40:09;7.38;;;5.93;;
52041;SDS011;38052;45.944;13.624;2023-05-10T12:42:36;8.38;;;5.97;;
52041;SDS011;38052;45.944;13.624;2023-05-10T12:45:07;8.18;;;6.57;;
52041;SDS011;38052;45.944;13.624;2023-05-10T12:47:33;8.88;;;6.35;;
52041;SDS011;38052;45.944;13.624;2023-05-10T12:50:00;9.13;;;6.53;;
52041;SDS011;38052;45.944;13.624;2023-05-10T12:52:27;7.53;;;6.72;;
52041;SDS011;38052;45.944;13.624;2023-05-10T12:54:53;10.05;;;7.15;;
52041;SDS011;38052;45.944;13.624;2023-05-10T12:57:20;14.60;;;8.73;;
52041;SDS011;38052;45.944;13.624;2023-05-10T12:59:46;6.45;;;5.68;;
52041;SDS011;38052;45.944;13.624;2023-05-10T13:02:13;9.95;;;7.00;;
52041;SDS011;38052;45.944;13.624;2023-05-10T13:04:40;8.40;;;6.47;;
52041;SDS011;38052;45.944;13.624;2023-05-10T13:07:07;7.93;;;7.05;;
52041;SDS011;38052;45.944;13.624;2023-05-10T13:09:33;6.57;;;5.97;;
52041;SDS011;38052;45.944;13.624;2023-05-10T13:12:00;7.20;;;6.43;;
52041;SDS011;38052;45.944;13.624;2023-05-10T13:14:26;6.95;;;6.13;;
52041;SDS011;38052;45.944;13.624;2023-05-10T13:16:52;7.30;;;6.30;;
52041;SDS011;38052;45.944;13.624;2023-05-10T13:19:18;7.60;;;6.50;;
52041;SDS011;38052;45.944;13.624;2023-05-10T13:21:45;10.60;;;7.55;;
52041;SDS011;38052;45.944;13.624;2023-05-10T13:24:12;8.00;;;6.57;;
52041;SDS011;38052;45.944;13.624;2023-05-10T13:26:42;8.15;;;7.15;;
52041;SDS011;38052;45.944;13.624;2023-05-10T13:29:08;12.82;;;6.65;;
52041;SDS011;38052;45.944;13.624;2023-05-10T13:31:35;9.95;;;8.10;;
52041;SDS011;38052;45.944;13.624;2023-05-10T13:34:01;8.32;;;6.50;;
52041;SDS011;38052;45.944;13.624;2023-05-10T13:36:28;7.93;;;7.22;;
52041;SDS011;38052;45.944;13.624;2023-05-10T13:38:54;10.65;;;7.20;;
52041;SDS011;38052;45.944;13.624;2023-05-10T13:41:20;8.75;;;7.05;;
52041;SDS011;38052;45.944;13.624;2023-05-10T13:43:46;8.50;;;7.55;;
52041;SDS011;38052;45.944;13.624;2023-05-10T13:46:13;10.05;;;8.60;;
52041;SDS011;38052;45.944;13.624;2023-05-10T13:48:40;8.18;;;7.35;;
52041;SDS011;38052;45.944;13.624;2023-05-10T13:51:06;9.38;;;7.28;;
52041;SDS011;38052;45.944;13.624;2023-05-10T13:53:33;9.75;;;6.53;;
52041;SDS011;38052;45.944;13.624;2023-05-10T13:55:59;8.02;;;7.05;;
52041;SDS011;38052;45.944;13.624;2023-05-10T13:58:26;9.18;;;7.18;;
52041;SDS011;38052;45.944;13.624;2023-05-10T14:00:52;8.15;;;6.35;;
52041;SDS011;38052;45.944;13.624;2023-05-10T14:03:19;8.43;;;6.90;;
52041;SDS011;38052;45.944;13.624;2023-05-10T14:05:45;8.02;;;6.97;;
52041;SDS011;38052;45.944;13.624;2023-05-10T14:08:12;6.90;;;6.20;;
52041;SDS011;38052;45.944;13.624;2023-05-10T14:10:38;6.97;;;6.25;;
52041;SDS011;38052;45.944;13.624;2023-05-10T14:13:04;8.85;;;6.90;;
52041;SDS011;38052;45.944;13.624;2023-05-10T14:15:31;8.52;;;7.18;;
52041;SDS011;38052;45.944;13.624;2023-05-10T14:17:58;7.50;;;6.13;;
52041;SDS011;38052;45.944;13.624;2023-05-10T14:20:24;7.78;;;6.75;;
52041;SDS011;38052;45.944;13.624;2023-05-10T14:22:50;9.07;;;7.45;;
52041;SDS011;38052;45.944;13.624;2023-05-10T14:25:17;9.43;;;7.30;;
52041;SDS011;38052;45.944;13.624;2023-05-10T14:27:44;8.20;;;6.30;;
52041;SDS011;38052;45.944;13.624;2023-05-10T14:30:11;7.60;;;6.80;;
52041;SDS011;38052;45.944;13.624;2023-05-10T14:32:37;6.70;;;6.07;;
52041;SDS011;38052;45.944;13.624;2023-05-10T14:35:03;7.25;;;6.35;;
52041;SDS011;38052;45.944;13.624;2023-05-10T14:37:30;7.07;;;6.38;;
52041;SDS011;38052;45.944;13.624;2023-05-10T14:39:57;9.32;;;5.78;;
52041;SDS011;38052;45.944;13.624;2023-05-10T14:42:24;6.20;;;5.60;;
52041;SDS011;38052;45.944;13.624;2023-05-10T14:44:50;6.78;;;6.05;;
52041;SDS011;38052;45.944;13.624;2023-05-10T14:47:17;6.55;;;5.65;;
52041;SDS011;38052;45.944;13.624;2023-05-10T14:49:44;7.80;;;6.10;;
52041;SDS011;38052;45.944;13.624;2023-05-10T14:52:10;6.90;;;6.18;;
52041;SDS011;38052;45.944;13.624;2023-05-10T14:54:37;7.80;;;6.05;;
52041;SDS011;38052;45.944;13.624;2023-05-10T14:57:03;6.22;;;5.50;;
52041;SDS011;38052;45.944;13.624;2023-05-10T14:59:30;7.55;;;5.88;;
52041;SDS011;38052;45.944;13.624;2023-05-10T15:01:56;7.43;;;6.60;;
52041;SDS011;38052;45.944;13.624;2023-05-10T15:04:23;8.27;;;6.30;;
52041;SDS011;38052;45.944;13.624;2023-05-10T15:06:49;9.05;;;6.80;;
52041;SDS011;38052;45.944;13.624;2023-05-10T15:09:16;7.95;;;5.80;;
52041;SDS011;38052;45.944;13.624;2023-05-10T15:11:43;7.47;;;4.68;;
52041;SDS011;38052;45.944;13.624;2023-05-10T15:14:09;7.57;;;5.15;;